sensor_id;sensor_type;location;lat;lon;timestamp;P1;durP1;ratioP1;P2;durP2;ratioP2
35969;SDS011;22448;51.298;6.430;2023-01-28T00:01:53;16.98;;;13.40;;
35969;SDS011;22448;51.298;6.430;2023-01-28T00:04:20;16.33;;;13.95;;
35969;SDS011;22448;51.298;6.430;2023-01-28T00:06:47;16.83;;;13.88;;
35969;SDS011;22448;51.298;6.430;2023-01-28T00:09:14;17.08;;;14.10;;
35969;SDS011;22448;51.298;6.430;2023-01-28T00:11:41;18.42;;;13.57;;
35969;SDS011;22448;51.298;6.430;2023-01-28T00:14:09;20.17;;;15.18;;
35969;SDS011;22448;51.298;6.430;2023-01-28T00:16:37;16.92;;;13.55;;
35969;SDS011;22448;51.298;6.430;2023-01-28T00:19:04;20.58;;;15.15;;
35969;SDS011;22448;51.298;6.430;2023-01-28T00:21:31;17.45;;;14.43;;
35969;SDS011;22448;51.298;6.430;2023-01-28T00:23:58;20.10;;;14.63;;
35969;SDS011;22448;51.298;6.430;2023-01-28T00:26:25;17.63;;;14.68;;
35969;SDS011;22448;51.298;6.430;2023-01-28T00:28:52;18.52;;;14.25;;
35969;SDS011;22448;51.298;6.430;2023-01-28T00:31:20;17.80;;;14.00;;
35969;SDS011;22448;51.298;6.430;2023-01-28T00:33:53;20.83;;;13.77;;
35969;SDS011;22448;51.298;6.430;2023-01-28T00:36:22;18.10;;;13.48;;
35969;SDS011;22448;51.298;6.430;2023-01-28T00:38:51;18.63;;;14.32;;
35969;SDS011;22448;51.298;6.430;2023-01-28T00:41:21;20.58;;;14.20;;
35969;SDS011;22448;51.298;6.430;2023-01-28T00:43:50;21.50;;;14.40;;
35969;SDS011;22448;51.298;6.430;2023-01-28T00:46:18;18.98;;;14.70;;
35969;SDS011;22448;51.298;6.430;2023-01-28T00:48:46;20.20;;;15.43;;
35969;SDS011;22448;51.298;6.430;2023-01-28T00:51:15;23.70;;;16.58;;
35969;SDS011;22448;51.298;6.430;2023-01-28T00:53:43;23.00;;;16.50;;
35969;SDS011;22448;51.298;6.430;2023-01-28T00:56:11;23.10;;;16.60;;
35969;SDS011;22448;51.298;6.430;2023-01-28T00:58:40;24.25;;;17.45;;
35969;SDS011;22448;51.298;6.430;2023-01-28T01:01:12;28.20;;;17.85;;
35969;SDS011;22448;51.298;6.430;2023-01-28T01:03:44;21.92;;;16.70;;
35969;SDS011;22448;51.298;6.430;2023-01-28T01:06:14;23.73;;;16.70;;
35969;SDS011;22448;51.298;6.430;2023-01-28T01:08:42;22.70;;;16.45;;
35969;SDS011;22448;51.298;6.430;2023-01-28T01:11:16;21.90;;;16.40;;
35969;SDS011;22448;51.298;6.430;2023-01-28T01:13:43;21.05;;;15.80;;
35969;SDS011;22448;51.298;6.430;2023-01-28T01:16:16;22.55;;;15.75;;
35969;SDS011;22448;51.298;6.430;2023-01-28T01:18:43;26.27;;;17.58;;
35969;SDS011;22448;51.298;6.430;2023-01-28T01:21:11;22.70;;;17.23;;
35969;SDS011;22448;51.298;6.430;2023-01-28T01:23:40;23.75;;;16.33;;
35969;SDS011;22448;51.298;6.430;2023-01-28T01:26:07;28.75;;;17.75;;
35969;SDS011;22448;51.298;6.430;2023-01-28T01:28:43;24.58;;;17.65;;
35969;SDS011;22448;51.298;6.430;2023-01-28T01:31:12;22.42;;;17.90;;
35969;SDS011;22448;51.298;6.430;2023-01-28T01:33:41;23.65;;;16.17;;
35969;SDS011;22448;51.298;6.430;2023-01-28T01:36:09;23.85;;;16.60;;
35969;SDS011;22448;51.298;6.430;2023-01-28T01:38:38;23.15;;;17.05;;
35969;SDS011;22448;51.298;6.430;2023-01-28T01:41:07;21.88;;;16.67;;
35969;SDS011;22448;51.298;6.430;2023-01-28T01:43:48;21.88;;;17.17;;
35969;SDS011;22448;51.298;6.430;2023-01-28T01:46:31;20.88;;;16.30;;
35969;SDS011;22448;51.298;6.430;2023-01-28T01:49:19;20.00;;;13.15;;
35969;SDS011;22448;51.298;6.430;2023-01-28T01:51:50;15.35;;;10.63;;
35969;SDS011;22448;51.298;6.430;2023-01-28T01:54:28;12.85;;;9.95;;
35969;SDS011;22448;51.298;6.430;2023-01-28T01:56:57;17.25;;;10.60;;
35969;SDS011;22448;51.298;6.430;2023-01-28T01:59:30;13.80;;;10.70;;
35969;SDS011;22448;51.298;6.430;2023-01-28T02:02:00;21.13;;;13.68;;
35969;SDS011;22448;51.298;6.430;2023-01-28T02:04:32;17.35;;;13.27;;
35969;SDS011;22448;51.298;6.430;2023-01-28T02:07:05;18.75;;;13.30;;
35969;SDS011;22448;51.298;6.430;2023-01-28T02:09:38;17.00;;;11.68;;
35969;SDS011;22448;51.298;6.430;2023-01-28T02:12:11;18.25;;;13.07;;
35969;SDS011;22448;51.298;6.430;2023-01-28T02:14:43;22.77;;;13.48;;
35969;SDS011;22448;51.298;6.430;2023-01-28T02:17:13;19.20;;;14.65;;
35969;SDS011;22448;51.298;6.430;2023-01-28T02:19:49;21.65;;;14.50;;
35969;SDS011;22448;51.298;6.430;2023-01-28T02:25:33;16.33;;;12.95;;
35969;SDS011;22448;51.298;6.430;2023-01-28T02:31:22;18.67;;;12.63;;
35969;SDS011;22448;51.298;6.430;2023-01-28T02:39:08;14.25;;;11.02;;
35969;SDS011;22448;51.298;6.430;2023-01-28T02:42:09;17.75;;;10.88;;
35969;SDS011;22448;51.298;6.430;2023-01-28T02:44:43;17.35;;;11.68;;
35969;SDS011;22448;51.298;6.430;2023-01-28T02:47:10;17.88;;;10.60;;
35969;SDS011;22448;51.298;6.430;2023-01-28T02:49:57;15.70;;;11.45;;
35969;SDS011;22448;51.298;6.430;2023-01-28T02:52:36;15.05;;;11.43;;
35969;SDS011;22448;51.298;6.430;2023-01-28T03:06:43;15.93;;;12.10;;
35969;SDS011;22448;51.298;6.430;2023-01-28T03:09:14;17.25;;;12.35;;
35969;SDS011;22448;51.298;6.430;2023-01-28T03:11:59;16.98;;;12.35;;
35969;SDS011;22448;51.298;6.430;2023-01-28T03:15:07;15.65;;;12.35;;
35969;SDS011;22448;51.298;6.430;2023-01-28T03:20:55;18.40;;;13.32;;
35969;SDS011;22448;51.298;6.430;2023-01-28T03:24:04;16.48;;;12.80;;
35969;SDS011;22448;51.298;6.430;2023-01-28T03:27:00;17.80;;;12.77;;
35969;SDS011;22448;51.298;6.430;2023-01-28T03:30:03;17.15;;;13.80;;
35969;SDS011;22448;51.298;6.430;2023-01-28T03:33:03;12.00;;;10.10;;
35969;SDS011;22448;51.298;6.430;2023-01-28T03:35:50;18.05;;;13.13;;
35969;SDS011;22448;51.298;6.430;2023-01-28T03:38:38;18.13;;;14.02;;
35969;SDS011;22448;51.298;6.430;2023-01-28T03:41:19;22.40;;;14.48;;
35969;SDS011;22448;51.298;6.430;2023-01-28T03:43:48;22.23;;;13.88;;
35969;SDS011;22448;51.298;6.430;2023-01-28T03:46:16;21.10;;;14.75;;
35969;SDS011;22448;51.298;6.430;2023-01-28T03:48:44;17.25;;;13.65;;
35969;SDS011;22448;51.298;6.430;2023-01-28T03:51:13;19.85;;;14.10;;
35969;SDS011;22448;51.298;6.430;2023-01-28T03:53:41;16.90;;;13.15;;
35969;SDS011;22448;51.298;6.430;2023-01-28T03:56:09;19.48;;;13.77;;
35969;SDS011;22448;51.298;6.430;2023-01-28T03:58:43;19.65;;;14.45;;
35969;SDS011;22448;51.298;6.430;2023-01-28T04:01:22;16.90;;;13.13;;
35969;SDS011;22448;51.298;6.430;2023-01-28T04:03:49;21.00;;;14.05;;
35969;SDS011;22448;51.298;6.430;2023-01-28T04:09:15;22.45;;;12.85;;
35969;SDS011;22448;51.298;6.430;2023-01-28T04:12:14;20.17;;;13.88;;
35969;SDS011;22448;51.298;6.430;2023-01-28T04:14:47;19.63;;;13.90;;
35969;SDS011;22448;51.298;6.430;2023-01-28T04:17:22;18.75;;;13.20;;
35969;SDS011;22448;51.298;6.430;2023-01-28T04:19:50;20.73;;;13.18;;
35969;SDS011;22448;51.298;6.430;2023-01-28T04:22:18;19.45;;;12.60;;
35969;SDS011;22448;51.298;6.430;2023-01-28T04:24:45;19.73;;;13.05;;
35969;SDS011;22448;51.298;6.430;2023-01-28T04:27:13;22.33;;;14.10;;
35969;SDS011;22448;51.298;6.430;2023-01-28T04:29:40;19.98;;;12.90;;
35969;SDS011;22448;51.298;6.430;2023-01-28T04:32:26;17.77;;;13.07;;
35969;SDS011;22448;51.298;6.430;2023-01-28T04:35:03;19.60;;;13.20;;
35969;SDS011;22448;51.298;6.430;2023-01-28T04:38:03;23.52;;;12.80;;
35969;SDS011;22448;51.298;6.430;2023-01-28T04:40:40;19.60;;;13.45;;
35969;SDS011;22448;51.298;6.430;2023-01-28T04:43:21;23.15;;;13.85;;
35969;SDS011;22448;51.298;6.430;2023-01-28T04:46:17;19.27;;;14.18;;
35969;SDS011;22448;51.298;6.430;2023-01-28T04:49:00;19.97;;;15.03;;
35969;SDS011;22448;51.298;6.430;2023-01-28T04:51:50;18.10;;;13.98;;
35969;SDS011;22448;51.298;6.430;2023-01-28T04:54:32;20.42;;;14.15;;
35969;SDS011;22448;51.298;6.430;2023-01-28T04:57:01;21.50;;;14.63;;
35969;SDS011;22448;51.298;6.430;2023-01-28T04:59:29;20.95;;;15.32;;
35969;SDS011;22448;51.298;6.430;2023-01-28T05:01:56;21.48;;;14.88;;
35969;SDS011;22448;51.298;6.430;2023-01-28T05:04:23;24.55;;;14.88;;
35969;SDS011;22448;51.298;6.430;2023-01-28T05:06:51;25.13;;;16.00;;
35969;SDS011;22448;51.298;6.430;2023-01-28T05:09:23;25.67;;;16.90;;
35969;SDS011;22448;51.298;6.430;2023-01-28T05:11:50;25.08;;;16.25;;
35969;SDS011;22448;51.298;6.430;2023-01-28T05:14:17;27.58;;;16.38;;
35969;SDS011;22448;51.298;6.430;2023-01-28T05:16:50;26.58;;;17.60;;
35969;SDS011;22448;51.298;6.430;2023-01-28T05:19:18;25.08;;;17.88;;
35969;SDS011;22448;51.298;6.430;2023-01-28T05:21:45;28.55;;;17.58;;
35969;SDS011;22448;51.298;6.430;2023-01-28T05:24:30;27.45;;;16.95;;
35969;SDS011;22448;51.298;6.430;2023-01-28T05:26:57;29.55;;;17.55;;
35969;SDS011;22448;51.298;6.430;2023-01-28T05:29:25;23.60;;;16.25;;
35969;SDS011;22448;51.298;6.430;2023-01-28T05:31:52;31.15;;;18.08;;
35969;SDS011;22448;51.298;6.430;2023-01-28T05:34:19;26.20;;;18.35;;
35969;SDS011;22448;51.298;6.430;2023-01-28T05:36:46;31.15;;;19.48;;
35969;SDS011;22448;51.298;6.430;2023-01-28T05:39:26;26.30;;;18.38;;
35969;SDS011;22448;51.298;6.430;2023-01-28T05:41:53;28.38;;;18.55;;
35969;SDS011;22448;51.298;6.430;2023-01-28T05:44:21;28.85;;;19.45;;
35969;SDS011;22448;51.298;6.430;2023-01-28T05:47:06;32.88;;;19.48;;
35969;SDS011;22448;51.298;6.430;2023-01-28T05:49:47;30.92;;;20.13;;
35969;SDS011;22448;51.298;6.430;2023-01-28T05:52:34;30.30;;;19.00;;
35969;SDS011;22448;51.298;6.430;2023-01-28T05:55:03;31.33;;;18.80;;
35969;SDS011;22448;51.298;6.430;2023-01-28T05:57:30;28.83;;;19.02;;
35969;SDS011;22448;51.298;6.430;2023-01-28T05:59:57;30.15;;;20.17;;
35969;SDS011;22448;51.298;6.430;2023-01-28T06:02:25;27.27;;;17.65;;
35969;SDS011;22448;51.298;6.430;2023-01-28T06:04:55;30.67;;;19.17;;
35969;SDS011;22448;51.298;6.430;2023-01-28T06:07:22;30.42;;;19.40;;
35969;SDS011;22448;51.298;6.430;2023-01-28T06:09:49;29.13;;;18.70;;
35969;SDS011;22448;51.298;6.430;2023-01-28T06:12:19;31.20;;;19.35;;
35969;SDS011;22448;51.298;6.430;2023-01-28T06:15:07;28.65;;;18.20;;
35969;SDS011;22448;51.298;6.430;2023-01-28T06:17:58;32.65;;;20.33;;
35969;SDS011;22448;51.298;6.430;2023-01-28T06:20:28;28.52;;;19.30;;
35969;SDS011;22448;51.298;6.430;2023-01-28T06:22:56;30.25;;;19.33;;
35969;SDS011;22448;51.298;6.430;2023-01-28T06:25:23;31.63;;;20.10;;
35969;SDS011;22448;51.298;6.430;2023-01-28T06:27:51;37.53;;;20.83;;
35969;SDS011;22448;51.298;6.430;2023-01-28T06:30:18;33.53;;;19.77;;
35969;SDS011;22448;51.298;6.430;2023-01-28T06:32:45;32.10;;;19.05;;
35969;SDS011;22448;51.298;6.430;2023-01-28T06:35:12;29.98;;;19.58;;
35969;SDS011;22448;51.298;6.430;2023-01-28T06:37:39;32.40;;;19.85;;
35969;SDS011;22448;51.298;6.430;2023-01-28T06:40:07;34.60;;;20.92;;
35969;SDS011;22448;51.298;6.430;2023-01-28T06:42:34;41.42;;;22.30;;
35969;SDS011;22448;51.298;6.430;2023-01-28T06:45:01;34.53;;;22.38;;
35969;SDS011;22448;51.298;6.430;2023-01-28T06:47:28;35.92;;;22.17;;
35969;SDS011;22448;51.298;6.430;2023-01-28T06:49:55;33.22;;;21.20;;
35969;SDS011;22448;51.298;6.430;2023-01-28T06:52:22;35.30;;;23.33;;
35969;SDS011;22448;51.298;6.430;2023-01-28T06:54:49;41.80;;;25.80;;
35969;SDS011;22448;51.298;6.430;2023-01-28T06:57:16;43.55;;;25.73;;
35969;SDS011;22448;51.298;6.430;2023-01-28T06:59:43;43.58;;;25.65;;
35969;SDS011;22448;51.298;6.430;2023-01-28T07:02:10;42.63;;;25.70;;
35969;SDS011;22448;51.298;6.430;2023-01-28T07:04:37;45.17;;;26.98;;
35969;SDS011;22448;51.298;6.430;2023-01-28T07:07:04;43.47;;;26.48;;
35969;SDS011;22448;51.298;6.430;2023-01-28T07:09:32;44.88;;;27.40;;
35969;SDS011;22448;51.298;6.430;2023-01-28T07:11:59;45.92;;;27.25;;
35969;SDS011;22448;51.298;6.430;2023-01-28T07:14:26;39.58;;;24.73;;
35969;SDS011;22448;51.298;6.430;2023-01-28T07:16:53;40.20;;;25.27;;
35969;SDS011;22448;51.298;6.430;2023-01-28T07:19:20;40.40;;;25.27;;
35969;SDS011;22448;51.298;6.430;2023-01-28T07:21:47;41.25;;;25.45;;
35969;SDS011;22448;51.298;6.430;2023-01-28T07:24:14;41.67;;;26.52;;
35969;SDS011;22448;51.298;6.430;2023-01-28T07:26:42;44.83;;;26.02;;
35969;SDS011;22448;51.298;6.430;2023-01-28T07:29:09;45.55;;;25.35;;
35969;SDS011;22448;51.298;6.430;2023-01-28T07:31:36;43.17;;;26.13;;
35969;SDS011;22448;51.298;6.430;2023-01-28T07:34:03;47.65;;;27.13;;
35969;SDS011;22448;51.298;6.430;2023-01-28T07:36:30;44.75;;;25.70;;
35969;SDS011;22448;51.298;6.430;2023-01-28T07:38:57;42.75;;;26.75;;
35969;SDS011;22448;51.298;6.430;2023-01-28T07:41:24;43.45;;;26.77;;
35969;SDS011;22448;51.298;6.430;2023-01-28T07:43:51;44.10;;;26.92;;
35969;SDS011;22448;51.298;6.430;2023-01-28T07:46:18;45.80;;;26.52;;
35969;SDS011;22448;51.298;6.430;2023-01-28T07:48:45;43.08;;;24.48;;
35969;SDS011;22448;51.298;6.430;2023-01-28T07:51:12;42.53;;;24.58;;
35969;SDS011;22448;51.298;6.430;2023-01-28T07:53:39;42.53;;;25.63;;
35969;SDS011;22448;51.298;6.430;2023-01-28T07:56:06;47.50;;;26.25;;
35969;SDS011;22448;51.298;6.430;2023-01-28T07:58:33;41.10;;;25.65;;
35969;SDS011;22448;51.298;6.430;2023-01-28T08:01:00;41.33;;;25.20;;
35969;SDS011;22448;51.298;6.430;2023-01-28T08:03:28;42.03;;;24.23;;
35969;SDS011;22448;51.298;6.430;2023-01-28T08:05:55;46.78;;;27.70;;
35969;SDS011;22448;51.298;6.430;2023-01-28T08:08:24;43.55;;;27.00;;
35969;SDS011;22448;51.298;6.430;2023-01-28T08:10:54;41.00;;;25.17;;
35969;SDS011;22448;51.298;6.430;2023-01-28T08:13:21;44.22;;;25.75;;
35969;SDS011;22448;51.298;6.430;2023-01-28T08:15:48;45.45;;;26.58;;
35969;SDS011;22448;51.298;6.430;2023-01-28T08:18:20;46.65;;;26.00;;
35969;SDS011;22448;51.298;6.430;2023-01-28T08:20:47;47.55;;;27.45;;
35969;SDS011;22448;51.298;6.430;2023-01-28T08:23:15;47.55;;;27.85;;
35969;SDS011;22448;51.298;6.430;2023-01-28T08:25:43;44.60;;;26.65;;
35969;SDS011;22448;51.298;6.430;2023-01-28T08:28:11;46.70;;;26.88;;
35969;SDS011;22448;51.298;6.430;2023-01-28T08:30:38;47.65;;;28.35;;
35969;SDS011;22448;51.298;6.430;2023-01-28T08:33:06;45.95;;;27.95;;
35969;SDS011;22448;51.298;6.430;2023-01-28T08:35:34;43.42;;;26.90;;
35969;SDS011;22448;51.298;6.430;2023-01-28T08:38:02;46.97;;;27.15;;
35969;SDS011;22448;51.298;6.430;2023-01-28T08:40:30;46.15;;;27.52;;
35969;SDS011;22448;51.298;6.430;2023-01-28T08:42:58;43.85;;;27.40;;
35969;SDS011;22448;51.298;6.430;2023-01-28T08:45:25;48.95;;;28.95;;
35969;SDS011;22448;51.298;6.430;2023-01-28T08:47:57;47.17;;;28.38;;
35969;SDS011;22448;51.298;6.430;2023-01-28T08:50:27;48.45;;;29.35;;
35969;SDS011;22448;51.298;6.430;2023-01-28T08:52:58;47.63;;;28.67;;
35969;SDS011;22448;51.298;6.430;2023-01-28T08:55:28;45.53;;;27.63;;
35969;SDS011;22448;51.298;6.430;2023-01-28T08:57:55;49.53;;;28.33;;
35969;SDS011;22448;51.298;6.430;2023-01-28T09:00:23;47.60;;;28.58;;
35969;SDS011;22448;51.298;6.430;2023-01-28T09:02:51;41.90;;;25.63;;
35969;SDS011;22448;51.298;6.430;2023-01-28T09:05:19;48.60;;;28.48;;
35969;SDS011;22448;51.298;6.430;2023-01-28T09:07:46;48.78;;;29.30;;
35969;SDS011;22448;51.298;6.430;2023-01-28T09:10:14;46.15;;;26.85;;
35969;SDS011;22448;51.298;6.430;2023-01-28T09:12:42;48.58;;;27.58;;
35969;SDS011;22448;51.298;6.430;2023-01-28T09:15:10;45.20;;;26.85;;
35969;SDS011;22448;51.298;6.430;2023-01-28T09:17:37;48.00;;;28.42;;
35969;SDS011;22448;51.298;6.430;2023-01-28T09:20:05;50.60;;;29.08;;
35969;SDS011;22448;51.298;6.430;2023-01-28T09:22:33;50.45;;;28.10;;
35969;SDS011;22448;51.298;6.430;2023-01-28T09:25:00;46.80;;;26.65;;
35969;SDS011;22448;51.298;6.430;2023-01-28T09:27:27;50.30;;;30.02;;
35969;SDS011;22448;51.298;6.430;2023-01-28T09:29:54;48.38;;;28.02;;
35969;SDS011;22448;51.298;6.430;2023-01-28T09:32:21;48.75;;;26.88;;
35969;SDS011;22448;51.298;6.430;2023-01-28T09:34:50;48.00;;;27.83;;
35969;SDS011;22448;51.298;6.430;2023-01-28T09:37:17;48.33;;;25.80;;
35969;SDS011;22448;51.298;6.430;2023-01-28T09:39:44;43.65;;;26.48;;
35969;SDS011;22448;51.298;6.430;2023-01-28T09:47:24;42.30;;;26.75;;
35969;SDS011;22448;51.298;6.430;2023-01-28T09:49:52;42.28;;;25.48;;
35969;SDS011;22448;51.298;6.430;2023-01-28T09:52:22;45.83;;;27.25;;
35969;SDS011;22448;51.298;6.430;2023-01-28T09:57:54;45.05;;;27.00;;
35969;SDS011;22448;51.298;6.430;2023-01-28T10:00:23;43.05;;;26.23;;
35969;SDS011;22448;51.298;6.430;2023-01-28T10:03:04;43.90;;;26.00;;
35969;SDS011;22448;51.298;6.430;2023-01-28T10:13:56;42.30;;;23.85;;
35969;SDS011;22448;51.298;6.430;2023-01-28T10:21:51;43.92;;;23.98;;
35969;SDS011;22448;51.298;6.430;2023-01-28T10:24:30;38.33;;;22.42;;
35969;SDS011;22448;51.298;6.430;2023-01-28T10:27:08;40.13;;;24.85;;
35969;SDS011;22448;51.298;6.430;2023-01-28T10:29:58;35.67;;;22.42;;
35969;SDS011;22448;51.298;6.430;2023-01-28T10:32:35;40.65;;;25.05;;
35969;SDS011;22448;51.298;6.430;2023-01-28T10:35:09;36.95;;;23.73;;
35969;SDS011;22448;51.298;6.430;2023-01-28T10:37:37;47.42;;;25.63;;
35969;SDS011;22448;51.298;6.430;2023-01-28T10:40:06;38.30;;;23.48;;
35969;SDS011;22448;51.298;6.430;2023-01-28T10:42:38;35.00;;;22.13;;
35969;SDS011;22448;51.298;6.430;2023-01-28T10:45:17;31.25;;;21.27;;
35969;SDS011;22448;51.298;6.430;2023-01-28T10:47:55;37.83;;;22.15;;
35969;SDS011;22448;51.298;6.430;2023-01-28T10:50:29;37.70;;;24.17;;
35969;SDS011;22448;51.298;6.430;2023-01-28T10:53:01;32.90;;;22.52;;
35969;SDS011;22448;51.298;6.430;2023-01-28T10:58:24;34.40;;;21.95;;
35969;SDS011;22448;51.298;6.430;2023-01-28T11:01:01;32.10;;;20.88;;
35969;SDS011;22448;51.298;6.430;2023-01-28T11:03:31;34.28;;;23.08;;
35969;SDS011;22448;51.298;6.430;2023-01-28T11:06:00;38.85;;;25.90;;
35969;SDS011;22448;51.298;6.430;2023-01-28T11:08:30;42.80;;;24.23;;
35969;SDS011;22448;51.298;6.430;2023-01-28T11:11:12;34.63;;;21.85;;
35969;SDS011;22448;51.298;6.430;2023-01-28T11:13:50;44.50;;;26.63;;
35969;SDS011;22448;51.298;6.430;2023-01-28T11:16:19;34.08;;;21.73;;
35969;SDS011;22448;51.298;6.430;2023-01-28T11:18:49;34.75;;;21.70;;
35969;SDS011;22448;51.298;6.430;2023-01-28T11:23:59;35.13;;;22.38;;
35969;SDS011;22448;51.298;6.430;2023-01-28T11:26:36;33.13;;;21.80;;
35969;SDS011;22448;51.298;6.430;2023-01-28T11:29:05;32.72;;;21.73;;
35969;SDS011;22448;51.298;6.430;2023-01-28T11:31:40;36.08;;;21.85;;
35969;SDS011;22448;51.298;6.430;2023-01-28T11:34:14;33.13;;;21.35;;
35969;SDS011;22448;51.298;6.430;2023-01-28T11:36:50;33.47;;;21.40;;
35969;SDS011;22448;51.298;6.430;2023-01-28T11:39:24;33.20;;;22.40;;
35969;SDS011;22448;51.298;6.430;2023-01-28T11:41:54;34.88;;;21.65;;
35969;SDS011;22448;51.298;6.430;2023-01-28T11:44:45;31.98;;;21.15;;
35969;SDS011;22448;51.298;6.430;2023-01-28T11:47:15;37.92;;;23.63;;
35969;SDS011;22448;51.298;6.430;2023-01-28T11:58:32;40.90;;;24.50;;
35969;SDS011;22448;51.298;6.430;2023-01-28T12:01:07;39.33;;;24.95;;
35969;SDS011;22448;51.298;6.430;2023-01-28T12:03:43;36.38;;;23.20;;
35969;SDS011;22448;51.298;6.430;2023-01-28T12:06:47;38.33;;;23.73;;
35969;SDS011;22448;51.298;6.430;2023-01-28T12:09:44;40.95;;;24.38;;
35969;SDS011;22448;51.298;6.430;2023-01-28T12:12:34;38.65;;;24.48;;
35969;SDS011;22448;51.298;6.430;2023-01-28T12:18:16;46.08;;;27.95;;
35969;SDS011;22448;51.298;6.430;2023-01-28T12:26:01;47.55;;;28.63;;
35969;SDS011;22448;51.298;6.430;2023-01-28T12:28:39;60.63;;;33.72;;
35969;SDS011;22448;51.298;6.430;2023-01-28T12:31:36;61.97;;;35.72;;
35969;SDS011;22448;51.298;6.430;2023-01-28T12:37:26;57.38;;;32.47;;
35969;SDS011;22448;51.298;6.430;2023-01-28T12:43:18;62.00;;;34.28;;
35969;SDS011;22448;51.298;6.430;2023-01-28T12:46:08;62.63;;;34.70;;
35969;SDS011;22448;51.298;6.430;2023-01-28T12:48:47;60.55;;;36.08;;
35969;SDS011;22448;51.298;6.430;2023-01-28T12:51:44;59.63;;;34.95;;
35969;SDS011;22448;51.298;6.430;2023-01-28T12:54:39;67.67;;;37.30;;
35969;SDS011;22448;51.298;6.430;2023-01-28T12:57:13;64.47;;;36.80;;
35969;SDS011;22448;51.298;6.430;2023-01-28T12:59:48;62.15;;;35.55;;
35969;SDS011;22448;51.298;6.430;2023-01-28T13:02:25;64.63;;;36.83;;
35969;SDS011;22448;51.298;6.430;2023-01-28T13:07:51;61.95;;;37.53;;
35969;SDS011;22448;51.298;6.430;2023-01-28T13:10:26;59.03;;;35.10;;
35969;SDS011;22448;51.298;6.430;2023-01-28T13:12:59;77.13;;;42.55;;
35969;SDS011;22448;51.298;6.430;2023-01-28T13:15:26;76.50;;;45.67;;
35969;SDS011;22448;51.298;6.430;2023-01-28T13:17:58;65.90;;;35.92;;
35969;SDS011;22448;51.298;6.430;2023-01-28T13:24:02;68.43;;;40.45;;
35969;SDS011;22448;51.298;6.430;2023-01-28T13:28:50;65.38;;;37.25;;
35969;SDS011;22448;51.298;6.430;2023-01-28T13:31:18;56.03;;;35.00;;
35969;SDS011;22448;51.298;6.430;2023-01-28T13:39:03;57.92;;;34.67;;
35969;SDS011;22448;51.298;6.430;2023-01-28T13:41:47;58.83;;;35.33;;
35969;SDS011;22448;51.298;6.430;2023-01-28T13:44:40;62.63;;;36.60;;
35969;SDS011;22448;51.298;6.430;2023-01-28T13:49:41;58.78;;;35.83;;
35969;SDS011;22448;51.298;6.430;2023-01-28T13:52:13;62.63;;;35.67;;
35969;SDS011;22448;51.298;6.430;2023-01-28T13:55:01;100.97;;;51.05;;
35969;SDS011;22448;51.298;6.430;2023-01-28T14:00:35;68.43;;;42.42;;
35969;SDS011;22448;51.298;6.430;2023-01-28T14:05:58;62.05;;;37.25;;
35969;SDS011;22448;51.298;6.430;2023-01-28T14:19:54;64.45;;;38.42;;
35969;SDS011;22448;51.298;6.430;2023-01-28T14:22:23;64.43;;;37.70;;
35969;SDS011;22448;51.298;6.430;2023-01-28T14:24:52;63.33;;;38.13;;
35969;SDS011;22448;51.298;6.430;2023-01-28T14:27:24;63.75;;;37.17;;
35969;SDS011;22448;51.298;6.430;2023-01-28T14:32:47;66.80;;;40.25;;
35969;SDS011;22448;51.298;6.430;2023-01-28T14:35:24;69.95;;;38.25;;
35969;SDS011;22448;51.298;6.430;2023-01-28T14:37:55;62.10;;;37.72;;
35969;SDS011;22448;51.298;6.430;2023-01-28T14:40:24;62.08;;;37.35;;
35969;SDS011;22448;51.298;6.430;2023-01-28T14:42:54;67.07;;;37.10;;
35969;SDS011;22448;51.298;6.430;2023-01-28T14:56:21;70.72;;;41.00;;
35969;SDS011;22448;51.298;6.430;2023-01-28T14:59:11;66.78;;;38.53;;
35969;SDS011;22448;51.298;6.430;2023-01-28T15:01:44;66.80;;;40.33;;
35969;SDS011;22448;51.298;6.430;2023-01-28T15:04:29;65.70;;;39.53;;
35969;SDS011;22448;51.298;6.430;2023-01-28T15:07:14;67.57;;;40.72;;
35969;SDS011;22448;51.298;6.430;2023-01-28T15:10:02;73.35;;;41.90;;
35969;SDS011;22448;51.298;6.430;2023-01-28T15:12:36;75.60;;;41.05;;
35969;SDS011;22448;51.298;6.430;2023-01-28T15:15:09;76.88;;;41.92;;
35969;SDS011;22448;51.298;6.430;2023-01-28T15:17:36;82.18;;;43.30;;
35969;SDS011;22448;51.298;6.430;2023-01-28T15:20:05;74.70;;;43.70;;
35969;SDS011;22448;51.298;6.430;2023-01-28T15:22:33;76.30;;;42.97;;
35969;SDS011;22448;51.298;6.430;2023-01-28T15:25:01;64.57;;;38.45;;
35969;SDS011;22448;51.298;6.430;2023-01-28T15:27:28;68.25;;;40.58;;
35969;SDS011;22448;51.298;6.430;2023-01-28T15:29:57;72.22;;;42.40;;
35969;SDS011;22448;51.298;6.430;2023-01-28T15:32:26;74.88;;;41.90;;
35969;SDS011;22448;51.298;6.430;2023-01-28T15:34:55;72.10;;;40.95;;
35969;SDS011;22448;51.298;6.430;2023-01-28T15:37:24;65.70;;;39.90;;
35969;SDS011;22448;51.298;6.430;2023-01-28T15:40:02;69.82;;;40.80;;
35969;SDS011;22448;51.298;6.430;2023-01-28T15:42:33;75.38;;;41.72;;
35969;SDS011;22448;51.298;6.430;2023-01-28T15:45:01;77.00;;;40.95;;
35969;SDS011;22448;51.298;6.430;2023-01-28T15:47:30;67.95;;;40.88;;
35969;SDS011;22448;51.298;6.430;2023-01-28T15:50:00;71.43;;;39.92;;
35969;SDS011;22448;51.298;6.430;2023-01-28T15:52:34;71.00;;;41.80;;
35969;SDS011;22448;51.298;6.430;2023-01-28T15:55:04;72.88;;;42.95;;
35969;SDS011;22448;51.298;6.430;2023-01-28T15:57:33;72.82;;;42.03;;
35969;SDS011;22448;51.298;6.430;2023-01-28T16:02:46;74.10;;;41.10;;
35969;SDS011;22448;51.298;6.430;2023-01-28T16:05:32;72.55;;;41.45;;
35969;SDS011;22448;51.298;6.430;2023-01-28T16:08:08;75.47;;;39.63;;
35969;SDS011;22448;51.298;6.430;2023-01-28T16:10:38;70.28;;;40.75;;
35969;SDS011;22448;51.298;6.430;2023-01-28T16:15:35;67.68;;;39.17;;
35969;SDS011;22448;51.298;6.430;2023-01-28T16:18:04;73.57;;;40.67;;
35969;SDS011;22448;51.298;6.430;2023-01-28T16:20:32;77.32;;;41.00;;
35969;SDS011;22448;51.298;6.430;2023-01-28T16:22:59;70.72;;;39.63;;
35969;SDS011;22448;51.298;6.430;2023-01-28T16:25:29;71.60;;;39.40;;
35969;SDS011;22448;51.298;6.430;2023-01-28T16:28:02;71.20;;;39.13;;
35969;SDS011;22448;51.298;6.430;2023-01-28T16:30:44;71.38;;;39.30;;
35969;SDS011;22448;51.298;6.430;2023-01-28T16:33:18;73.65;;;40.38;;
35969;SDS011;22448;51.298;6.430;2023-01-28T16:35:47;76.25;;;39.47;;
35969;SDS011;22448;51.298;6.430;2023-01-28T16:38:33;71.57;;;40.63;;
35969;SDS011;22448;51.298;6.430;2023-01-28T16:41:00;75.57;;;41.70;;
35969;SDS011;22448;51.298;6.430;2023-01-28T16:43:27;72.82;;;41.55;;
35969;SDS011;22448;51.298;6.430;2023-01-28T16:45:54;84.13;;;44.30;;
35969;SDS011;22448;51.298;6.430;2023-01-28T16:48:21;89.63;;;47.75;;
35969;SDS011;22448;51.298;6.430;2023-01-28T16:50:48;89.00;;;47.63;;
35969;SDS011;22448;51.298;6.430;2023-01-28T16:53:17;86.85;;;45.38;;
35969;SDS011;22448;51.298;6.430;2023-01-28T16:55:54;80.57;;;44.25;;
35969;SDS011;22448;51.298;6.430;2023-01-28T16:58:22;82.28;;;44.13;;
35969;SDS011;22448;51.298;6.430;2023-01-28T17:00:52;81.93;;;44.33;;
35969;SDS011;22448;51.298;6.430;2023-01-28T17:03:19;83.32;;;43.58;;
35969;SDS011;22448;51.298;6.430;2023-01-28T17:05:47;79.05;;;43.88;;